x

Sheboygan, Wi (sgnw3) Weather Station

7:00am - Sun 23rd Jul 2017 All times are CDT. -5 hours from GMT.

  • Wind
    13mph, 14mph gusts
  • Air Temp 68°f
  • Sea Pressure 1007.8mb
  • Sheboygan, Wi
  • Sheboygan, Wi

More Historic Weather Station data

Upgrade to MSW Pro to gain access to the past 30 days of data for over 8000 Wavebouys and Weather Stations around the globe.

Join Pro

Comparision Forecast

View Surf forecast
   
Sun 07/23 7:00am 13 14 mph 1007.8mb 68f
6:00am 10 13 mph 1007.7mb 67f
5:00am 11 13 mph 1007.7mb 67f
4:00am 11 14 mph 1007.6mb 67f
3:00am 13 13 mph 1007.8mb 67f
2:00am 9 9 mph 1008.9mb 67f
1:00am 8 8 mph 1007.8mb 69f
12:00am 6 7 mph 1008.5mb 70f
Sat 07/22 11:00pm 7 8 mph 1008.1mb 70f
10:00pm 7 7 mph 1009mb 71f
9:00pm 9 10 mph 1008.9mb 71f
8:00pm 6 7 mph 1008.7mb 71f
7:00pm 7 7 mph 1008.3mb 70f
6:00pm 3 3 mph 1008.9mb 70f
5:00pm 5 5 mph 1009mb 70f
4:00pm 5 6 mph 1009.1mb 70f
3:00pm 3 3 mph 1009.2mb 69f
2:00pm 5 6 mph 1009.1mb 69f
1:00pm 5 6 mph 1009.5mb 68f
12:00pm 7 7 mph 1009.7mb 68f
11:00am 10 10 mph 1010mb 66f
10:00am 10 11 mph 1009.3mb 66f
9:00am 7 8 mph 1009.2mb 67f
8:00am 1 1 mph 1009mb 67f
7:00am 3 3 mph 1008.8mb 67f
6:00am 6 7 mph 1008.3mb 67f
5:00am 3 3 mph 1008mb 67f
4:00am 9 10 mph 1008.4mb 67f
3:00am 3 3 mph 1009.9mb 67f
2:00am 6 7 mph 1010.6mb 67f
1:00am 13 13 mph 1010.9mb 67f
12:00am 18 22 mph 1011.2mb 67f
Fri 07/21 11:00pm 3 5 mph 1012mb 69f
10:00pm 9 10 mph 1012.3mb 66f
9:00pm 13 14 mph 1011.5mb 72f
8:00pm 16 17 mph 1011.4mb 70f
7:00pm 13 14 mph 1012.6mb 71f
6:00pm 7 7 mph 1013mb 74f
5:00pm 15 15 mph 1013mb 71f
4:00pm 9 9 mph 1014mb 76f
3:00pm 8 8 mph 1014.3mb 76f
2:00pm 13 14 mph 1013.5mb 75f
1:00pm 15 17 mph 1014.4mb 75f
12:00pm 16 16 mph 1014.8mb 73f
11:00am  -  0 mph 1015.2mb 77f
10:00am  -  1 mph 1014.6mb 72f
9:00am 1 2 mph 1014.5mb 71f
8:00am 3 3 mph 1014.5mb 69f
7:00am 2 3 mph 1015mb 71f
6:00am 2 3 mph 1015.3mb 71f
5:00am 3 5 mph 1015.1mb 72f
4:00am 7 8 mph 1014.6mb 72f
3:00am 7 8 mph 1013.9mb 73f
2:00am 6 6 mph 1014.2mb 72f
1:00am 3 5 mph 1014mb 71f
12:00am 6 6 mph 1013.8mb 71f
Thu 07/20 11:00pm 7 7 mph 1014.1mb 71f
10:00pm 8 8 mph 1014mb 72f
9:00pm 6 8 mph 1014mb 72f
8:00pm 16 17 mph 1013.6mb 70f
7:00pm 20 22 mph 1013.4mb 70f
6:00pm 18 20 mph 1013.3mb 69f
5:00pm 18 20 mph 1013.3mb 70f
4:00pm 20 21 mph 1013.3mb 70f
3:00pm 18 20 mph 1013.5mb 70f
2:00pm 13 13 mph 1013.7mb 70f
1:00pm 7 8 mph 1013.6mb 80f
12:00pm 13 16 mph 1014mb 78f
11:00am 9 13 mph 1014.6mb 76f
10:00am 9 10 mph 1014.8mb 74f
9:00am 10 11 mph 1015mb 73f
8:00am 5 6 mph 1014.6mb 69f
7:00am 3 5 mph 1014mb 69f
6:00am 6 8 mph 1014.7mb 69f
5:00am 5 8 mph 1014.6mb 69f
4:00am 8 10 mph 1012.7mb 70f
3:00am 11 15 mph 1013.6mb 71f
2:00am 7 9 mph 1014.3mb 72f
1:00am 9 11 mph 1014.3mb 72f
12:00am 2 3 mph 1013mb 73f
Wed 07/19 11:00pm  -  mph 1012.8mb 73f
10:00pm 44 48 mph 1009.2mb 72f
9:00pm 17 18 mph 1015.4mb 72f
8:00pm 5 5 mph 1017.9mb 72f
7:00pm 2 3 mph 1017.4mb 69f
6:00pm 2 2 mph 1017.6mb 70f
5:00pm 3 3 mph 1018.1mb 69f
4:00pm 3 3 mph 1018.9mb 69f
3:00pm 5 6 mph 1019.4mb 69f
2:00pm 8 8 mph 1019.9mb 69f